sensor_id;sensor_type;location;lat;lon;timestamp;pressure;altitude;pressure_sealevel;temperature;humidity
71195;BME280;58908;51.426;7.714;2024-01-06T00:00:26;98399.22;;;6.37;100.00
71195;BME280;58908;51.426;7.714;2024-01-06T00:02:54;98398.88;;;6.29;100.00
71195;BME280;58908;51.426;7.714;2024-01-06T00:05:20;98399.22;;;6.37;100.00
71195;BME280;58908;51.426;7.714;2024-01-06T00:07:47;98401.94;;;6.36;100.00
71195;BME280;58908;51.426;7.714;2024-01-06T00:10:14;98401.94;;;6.36;100.00
71195;BME280;58908;51.426;7.714;2024-01-06T00:12:40;98405.22;;;6.39;100.00
71195;BME280;58908;51.426;7.714;2024-01-06T00:15:07;98403.63;;;6.37;100.00
71195;BME280;58908;51.426;7.714;2024-01-06T00:17:33;98411.75;;;6.46;100.00
71195;BME280;58908;51.426;7.714;2024-01-06T00:20:01;98409.88;;;6.48;100.00
71195;BME280;58908;51.426;7.714;2024-01-06T00:22:29;98408.31;;;6.46;100.00
71195;BME280;58908;51.426;7.714;2024-01-06T00:24:56;98405.78;;;6.44;100.00
71195;BME280;58908;51.426;7.714;2024-01-06T00:27:22;98416.72;;;6.37;100.00
71195;BME280;58908;51.426;7.714;2024-01-06T00:29:49;98412.13;;;6.26;100.00
71195;BME280;58908;51.426;7.714;2024-01-06T00:32:15;98416.06;;;6.33;100.00
71195;BME280;58908;51.426;7.714;2024-01-06T00:34:41;98417.56;;;6.37;100.00
71195;BME280;58908;51.426;7.714;2024-01-06T00:37:09;98415.78;;;6.38;100.00
71195;BME280;58908;51.426;7.714;2024-01-06T00:39:35;98421.03;;;6.38;100.00
71195;BME280;58908;51.426;7.714;2024-01-06T00:42:01;98422.03;;;6.35;100.00
71195;BME280;58908;51.426;7.714;2024-01-06T00:44:28;98422.91;;;6.36;100.00
71195;BME280;58908;51.426;7.714;2024-01-06T00:46:54;98427.69;;;6.29;100.00
71195;BME280;58908;51.426;7.714;2024-01-06T00:49:20;98427.09;;;6.38;100.00
71195;BME280;58908;51.426;7.714;2024-01-06T00:51:47;98433.47;;;6.34;100.00
71195;BME280;58908;51.426;7.714;2024-01-06T00:54:14;98431.59;;;6.36;100.00
71195;BME280;58908;51.426;7.714;2024-01-06T00:56:40;98426.53;;;6.33;100.00
71195;BME280;58908;51.426;7.714;2024-01-06T00:59:07;98433.47;;;6.34;100.00
71195;BME280;58908;51.426;7.714;2024-01-06T01:01:34;98430.75;;;6.36;100.00
71195;BME280;58908;51.426;7.714;2024-01-06T01:04:02;98430.75;;;6.36;100.00
71195;BME280;58908;51.426;7.714;2024-01-06T01:06:28;98437.75;;;6.35;100.00
71195;BME280;58908;51.426;7.714;2024-01-06T01:08:55;98435.88;;;6.37;100.00
71195;BME280;58908;51.426;7.714;2024-01-06T01:11:22;98436.47;;;6.42;100.00
71195;BME280;58908;51.426;7.714;2024-01-06T01:13:49;98440.28;;;6.37;100.00
71195;BME280;58908;51.426;7.714;2024-01-06T01:16:15;98441.13;;;6.37;100.00
71195;BME280;58908;51.426;7.714;2024-01-06T01:18:41;98439.28;;;6.39;100.00
71195;BME280;58908;51.426;7.714;2024-01-06T01:21:07;98444.78;;;6.35;100.00
71195;BME280;58908;51.426;7.714;2024-01-06T01:23:34;98442.25;;;6.33;100.00
71195;BME280;58908;51.426;7.714;2024-01-06T01:26:00;98444.88;;;6.33;100.00
71195;BME280;58908;51.426;7.714;2024-01-06T01:28:28;98446.09;;;6.42;100.00
71195;BME280;58908;51.426;7.714;2024-01-06T01:30:54;98446.66;;;6.47;100.00
71195;BME280;58908;51.426;7.714;2024-01-06T01:33:20;98447.75;;;6.43;100.00
71195;BME280;58908;51.426;7.714;2024-01-06T01:35:46;98451.91;;;6.47;100.00
71195;BME280;58908;51.426;7.714;2024-01-06T01:38:13;98450.97;;;6.48;100.00
71195;BME280;58908;51.426;7.714;2024-01-06T01:40:39;98450.09;;;6.47;100.00
71195;BME280;58908;51.426;7.714;2024-01-06T01:43:15;98455.72;;;6.41;100.00
71195;BME280;58908;51.426;7.714;2024-01-06T01:45:42;98455.34;;;6.33;100.00
71195;BME280;58908;51.426;7.714;2024-01-06T01:48:09;98450.66;;;6.38;100.00
71195;BME280;58908;51.426;7.714;2024-01-06T01:50:35;98457.88;;;6.35;100.00
71195;BME280;58908;51.426;7.714;2024-01-06T01:53:01;98463.88;;;6.37;100.00
71195;BME280;58908;51.426;7.714;2024-01-06T01:55:28;98463.28;;;6.32;100.00
71195;BME280;58908;51.426;7.714;2024-01-06T01:57:54;98470.19;;;6.33;100.00
71195;BME280;58908;51.426;7.714;2024-01-06T02:00:21;98470.69;;;6.39;100.00
71195;BME280;58908;51.426;7.714;2024-01-06T02:02:48;98474.16;;;6.40;100.00
71195;BME280;58908;51.426;7.714;2024-01-06T02:05:15;98477.78;;;6.37;100.00
71195;BME280;58908;51.426;7.714;2024-01-06T02:07:41;98468.34;;;6.35;100.00
71195;BME280;58908;51.426;7.714;2024-01-06T02:10:07;98472.47;;;6.39;100.00
71195;BME280;58908;51.426;7.714;2024-01-06T02:12:34;98466.09;;;6.43;100.00
71195;BME280;58908;51.426;7.714;2024-01-06T02:15:00;98463.19;;;6.47;100.00
71195;BME280;58908;51.426;7.714;2024-01-06T02:17:26;98475.56;;;6.45;100.00
71195;BME280;58908;51.426;7.714;2024-01-06T02:19:54;98468.09;;;6.39;100.00
71195;BME280;58908;51.426;7.714;2024-01-06T02:22:22;98478.38;;;6.42;100.00
71195;BME280;58908;51.426;7.714;2024-01-06T02:24:49;98480.78;;;6.45;100.00
71195;BME280;58908;51.426;7.714;2024-01-06T02:27:15;98483.41;;;6.45;100.00
71195;BME280;58908;51.426;7.714;2024-01-06T02:29:41;98493.22;;;6.42;100.00
71195;BME280;58908;51.426;7.714;2024-01-06T02:32:08;98490.53;;;6.43;100.00
71195;BME280;58908;51.426;7.714;2024-01-06T02:34:35;98498.38;;;6.29;100.00
71195;BME280;58908;51.426;7.714;2024-01-06T02:37:03;98497.31;;;6.32;100.00
71195;BME280;58908;51.426;7.714;2024-01-06T02:39:32;98500.59;;;6.35;100.00
71195;BME280;58908;51.426;7.714;2024-01-06T02:41:57;98506.22;;;6.29;100.00
71195;BME280;58908;51.426;7.714;2024-01-06T02:44:24;98505.50;;;6.41;100.00
71195;BME280;58908;51.426;7.714;2024-01-06T02:46:50;98504.81;;;6.38;100.00
71195;BME280;58908;51.426;7.714;2024-01-06T02:49:17;98509.13;;;6.39;100.00
71195;BME280;58908;51.426;7.714;2024-01-06T02:51:43;98515.75;;;6.30;100.00
71195;BME280;58908;51.426;7.714;2024-01-06T02:54:10;98511.19;;;6.34;100.00
71195;BME280;58908;51.426;7.714;2024-01-06T02:56:37;98515.56;;;6.33;100.00
71195;BME280;58908;51.426;7.714;2024-01-06T02:59:04;98517.91;;;6.24;100.00
71195;BME280;58908;51.426;7.714;2024-01-06T03:01:31;98523.78;;;6.27;100.00
71195;BME280;58908;51.426;7.714;2024-01-06T03:03:58;98526.13;;;6.18;100.00
71195;BME280;58908;51.426;7.714;2024-01-06T03:06:24;98531.81;;;6.10;100.00
71195;BME280;58908;51.426;7.714;2024-01-06T03:08:50;98533.69;;;6.08;100.00
71195;BME280;58908;51.426;7.714;2024-01-06T03:11:17;98529.72;;;6.01;100.00
71195;BME280;58908;51.426;7.714;2024-01-06T03:13:44;98530.44;;;5.89;100.00
71195;BME280;58908;51.426;7.714;2024-01-06T03:16:11;98539.81;;;5.78;100.00
71195;BME280;58908;51.426;7.714;2024-01-06T03:18:37;98531.84;;;5.95;100.00
71195;BME280;58908;51.426;7.714;2024-01-06T03:21:04;98533.66;;;5.94;100.00
71195;BME280;58908;51.426;7.714;2024-01-06T03:23:30;98539.03;;;5.91;100.00
71195;BME280;58908;51.426;7.714;2024-01-06T03:25:56;98540.34;;;5.84;100.00
71195;BME280;58908;51.426;7.714;2024-01-06T03:28:23;98535.09;;;5.84;100.00
71195;BME280;58908;51.426;7.714;2024-01-06T03:30:50;98536.59;;;5.88;100.00
71195;BME280;58908;51.426;7.714;2024-01-06T03:33:16;98545.00;;;5.93;100.00
71195;BME280;58908;51.426;7.714;2024-01-06T03:35:43;98546.31;;;5.86;100.00
71195;BME280;58908;51.426;7.714;2024-01-06T03:38:09;98551.75;;;5.83;100.00
71195;BME280;58908;51.426;7.714;2024-01-06T03:40:35;98553.22;;;5.87;100.00
71195;BME280;58908;51.426;7.714;2024-01-06T03:43:02;98553.56;;;5.81;100.00
71195;BME280;58908;51.426;7.714;2024-01-06T03:45:28;98554.84;;;5.74;100.00
71195;BME280;58908;51.426;7.714;2024-01-06T03:47:55;98557.28;;;5.77;100.00
71195;BME280;58908;51.426;7.714;2024-01-06T03:50:22;98562.09;;;5.69;100.00
71195;BME280;58908;51.426;7.714;2024-01-06T03:52:48;98564.63;;;5.71;100.00
71195;BME280;58908;51.426;7.714;2024-01-06T03:55:14;98561.41;;;5.66;100.00
71195;BME280;58908;51.426;7.714;2024-01-06T03:57:41;98556.41;;;5.77;100.00
71195;BME280;58908;51.426;7.714;2024-01-06T04:00:07;98557.13;;;5.80;100.00
71195;BME280;58908;51.426;7.714;2024-01-06T04:02:34;98561.28;;;5.84;100.00
71195;BME280;58908;51.426;7.714;2024-01-06T04:05:02;98562.75;;;5.88;100.00
71195;BME280;58908;51.426;7.714;2024-01-06T04:07:30;98562.94;;;5.85;100.00
71195;BME280;58908;51.426;7.714;2024-01-06T04:09:56;98566.13;;;5.90;100.00
71195;BME280;58908;51.426;7.714;2024-01-06T04:12:22;98566.06;;;5.92;100.00
71195;BME280;58908;51.426;7.714;2024-01-06T04:14:48;98571.09;;;5.95;100.00
71195;BME280;58908;51.426;7.714;2024-01-06T04:17:15;98563.34;;;5.93;100.00
71195;BME280;58908;51.426;7.714;2024-01-06T04:19:41;98570.16;;;5.96;100.00
71195;BME280;58908;51.426;7.714;2024-01-06T04:22:08;98564.59;;;6.02;100.00
71195;BME280;58908;51.426;7.714;2024-01-06T04:24:35;98573.81;;;5.93;100.00
71195;BME280;58908;51.426;7.714;2024-01-06T04:27:02;98577.59;;;5.88;100.00
71195;BME280;58908;51.426;7.714;2024-01-06T04:29:29;98577.78;;;5.85;100.00
71195;BME280;58908;51.426;7.714;2024-01-06T04:31:55;98578.03;;;5.96;100.00
71195;BME280;58908;51.426;7.714;2024-01-06T04:34:21;98576.16;;;5.98;100.00
71195;BME280;58908;51.426;7.714;2024-01-06T04:36:47;98586.81;;;5.95;100.00
71195;BME280;58908;51.426;7.714;2024-01-06T04:39:16;98582.19;;;5.84;100.00
71195;BME280;58908;51.426;7.714;2024-01-06T04:41:44;98583.44;;;5.77;100.00
71195;BME280;58908;51.426;7.714;2024-01-06T04:44:11;98589.13;;;5.85;100.00
71195;BME280;58908;51.426;7.714;2024-01-06T04:46:37;98589.44;;;5.79;100.00
71195;BME280;58908;51.426;7.714;2024-01-06T04:49:03;98590.72;;;5.72;100.00
71195;BME280;58908;51.426;7.714;2024-01-06T04:51:30;98592.56;;;5.55;100.00
71195;BME280;58908;51.426;7.714;2024-01-06T04:53:56;98593.34;;;5.57;100.00
71195;BME280;58908;51.426;7.714;2024-01-06T04:56:23;98593.84;;;5.48;100.00
71195;BME280;58908;51.426;7.714;2024-01-06T04:58:50;98603.19;;;5.52;100.00
71195;BME280;58908;51.426;7.714;2024-01-06T05:01:16;98600.81;;;5.47;100.00
71195;BME280;58908;51.426;7.714;2024-01-06T05:03:42;98611.53;;;5.58;100.00
71195;BME280;58908;51.426;7.714;2024-01-06T05:06:08;98615.19;;;5.56;100.00
71195;BME280;58908;51.426;7.714;2024-01-06T05:08:35;98611.47;;;5.60;100.00
71195;BME280;58908;51.426;7.714;2024-01-06T05:11:03;98617.19;;;5.66;100.00
71195;BME280;58908;51.426;7.714;2024-01-06T05:13:31;98614.00;;;5.61;100.00
71195;BME280;58908;51.426;7.714;2024-01-06T05:15:57;98623.94;;;5.55;100.00
71195;BME280;58908;51.426;7.714;2024-01-06T05:18:23;98627.47;;;5.54;100.00
71195;BME280;58908;51.426;7.714;2024-01-06T05:20:50;98623.78;;;5.42;100.00
71195;BME280;58908;51.426;7.714;2024-01-06T05:23:16;98641.34;;;5.40;100.00
71195;BME280;58908;51.426;7.714;2024-01-06T05:25:42;98627.66;;;5.51;100.00
71195;BME280;58908;51.426;7.714;2024-01-06T05:28:09;98637.63;;;5.44;100.00
71195;BME280;58908;51.426;7.714;2024-01-06T05:30:36;98640.97;;;5.46;100.00
71195;BME280;58908;51.426;7.714;2024-01-06T05:33:03;98645.63;;;5.41;100.00
71195;BME280;58908;51.426;7.714;2024-01-06T05:35:29;98648.56;;;5.35;100.00
71195;BME280;58908;51.426;7.714;2024-01-06T05:37:55;98651.19;;;5.35;100.00
71195;BME280;58908;51.426;7.714;2024-01-06T05:40:22;98647.06;;;5.31;100.00
71195;BME280;58908;51.426;7.714;2024-01-06T05:42:48;98654.72;;;5.34;100.00
71195;BME280;58908;51.426;7.714;2024-01-06T05:45:14;98649.66;;;5.31;100.00
71195;BME280;58908;51.426;7.714;2024-01-06T05:47:42;98652.59;;;5.25;100.00
71195;BME280;58908;51.426;7.714;2024-01-06T05:50:11;98655.91;;;5.29;100.00
71195;BME280;58908;51.426;7.714;2024-01-06T05:52:40;98657.41;;;5.33;100.00
71195;BME280;58908;51.426;7.714;2024-01-06T05:55:07;98658.91;;;5.21;100.00
71195;BME280;58908;51.426;7.714;2024-01-06T05:57:34;98660.53;;;5.24;100.00
71195;BME280;58908;51.426;7.714;2024-01-06T06:00:00;98669.22;;;5.24;100.00
71195;BME280;58908;51.426;7.714;2024-01-06T06:02:26;98677.81;;;5.26;100.00
71195;BME280;58908;51.426;7.714;2024-01-06T06:04:54;98669.03;;;5.27;100.00
71195;BME280;58908;51.426;7.714;2024-01-06T06:07:20;98679.84;;;5.21;100.00
71195;BME280;58908;51.426;7.714;2024-01-06T06:09:47;98676.06;;;5.27;100.00
71195;BME280;58908;51.426;7.714;2024-01-06T06:12:13;98677.22;;;5.21;100.00
71195;BME280;58908;51.426;7.714;2024-01-06T06:14:39;98667.94;;;5.16;100.00
71195;BME280;58908;51.426;7.714;2024-01-06T06:17:05;98686.00;;;5.20;100.00
71195;BME280;58908;51.426;7.714;2024-01-06T06:19:32;98687.31;;;5.12;100.00
71195;BME280;58908;51.426;7.714;2024-01-06T06:21:59;98686.28;;;5.14;100.00
71195;BME280;58908;51.426;7.714;2024-01-06T06:24:25;98698.00;;;5.07;100.00
71195;BME280;58908;51.426;7.714;2024-01-06T06:26:52;98702.94;;;4.96;100.00
71195;BME280;58908;51.426;7.714;2024-01-06T06:29:21;98717.69;;;4.97;100.00
71195;BME280;58908;51.426;7.714;2024-01-06T06:31:47;98708.47;;;5.07;100.00
71195;BME280;58908;51.426;7.714;2024-01-06T06:34:14;98715.38;;;5.08;100.00
71195;BME280;58908;51.426;7.714;2024-01-06T06:36:40;98723.28;;;5.07;100.00
71195;BME280;58908;51.426;7.714;2024-01-06T06:39:07;98727.81;;;5.03;100.00
71195;BME280;58908;51.426;7.714;2024-01-06T06:41:34;98735.53;;;5.06;100.00
71195;BME280;58908;51.426;7.714;2024-01-06T06:44:00;98734.50;;;5.09;100.00
71195;BME280;58908;51.426;7.714;2024-01-06T06:46:27;98743.72;;;5.16;100.00
71195;BME280;58908;51.426;7.714;2024-01-06T06:48:53;98745.25;;;5.20;100.00
71195;BME280;58908;51.426;7.714;2024-01-06T06:51:20;98756.03;;;5.14;100.00
71195;BME280;58908;51.426;7.714;2024-01-06T06:53:49;98752.16;;;5.21;100.00
71195;BME280;58908;51.426;7.714;2024-01-06T06:56:17;98754.53;;;5.25;100.00
71195;BME280;58908;51.426;7.714;2024-01-06T06:58:43;98757.63;;;5.16;100.00
71195;BME280;58908;51.426;7.714;2024-01-06T07:01:09;98762.94;;;5.15;100.00
71195;BME280;58908;51.426;7.714;2024-01-06T07:03:36;98764.88;;;5.28;100.00
71195;BME280;58908;51.426;7.714;2024-01-06T07:06:02;98769.56;;;5.05;100.00
71195;BME280;58908;51.426;7.714;2024-01-06T07:08:29;98774.56;;;5.09;100.00
71195;BME280;58908;51.426;7.714;2024-01-06T07:10:55;98779.03;;;5.07;100.00
71195;BME280;58908;51.426;7.714;2024-01-06T07:13:23;98781.47;;;5.10;100.00
71195;BME280;58908;51.426;7.714;2024-01-06T07:15:49;98790.25;;;5.09;100.00
71195;BME280;58908;51.426;7.714;2024-01-06T07:18:15;98785.63;;;5.14;100.00
71195;BME280;58908;51.426;7.714;2024-01-06T07:20:43;98793.31;;;5.00;100.00
71195;BME280;58908;51.426;7.714;2024-01-06T07:23:09;98799.00;;;4.91;100.00
71195;BME280;58908;51.426;7.714;2024-01-06T07:25:35;98804.44;;;4.87;100.00
71195;BME280;58908;51.426;7.714;2024-01-06T07:28:02;98803.06;;;4.97;100.00
71195;BME280;58908;51.426;7.714;2024-01-06T07:30:29;98807.84;;;4.89;100.00
71195;BME280;58908;51.426;7.714;2024-01-06T07:32:56;98811.75;;;4.80;100.00
71195;BME280;58908;51.426;7.714;2024-01-06T07:35:22;98821.19;;;4.83;100.00
71195;BME280;58908;51.426;7.714;2024-01-06T07:37:49;98816.59;;;4.88;100.00
71195;BME280;58908;51.426;7.714;2024-01-06T07:40:15;98822.66;;;4.88;100.00
71195;BME280;58908;51.426;7.714;2024-01-06T07:42:42;98830.13;;;4.96;100.00
71195;BME280;58908;51.426;7.714;2024-01-06T07:45:08;98839.22;;;4.89;100.00
71195;BME280;58908;51.426;7.714;2024-01-06T07:47:36;98840.34;;;4.83;100.00
71195;BME280;58908;51.426;7.714;2024-01-06T07:50:03;98844.50;;;4.87;100.00
71195;BME280;58908;51.426;7.714;2024-01-06T07:52:30;98849.50;;;4.92;100.00
71195;BME280;58908;51.426;7.714;2024-01-06T07:54:57;98848.63;;;4.91;100.00
71195;BME280;58908;51.426;7.714;2024-01-06T07:57:24;98858.09;;;4.94;100.00
71195;BME280;58908;51.426;7.714;2024-01-06T07:59:50;98856.78;;;4.85;100.00
71195;BME280;58908;51.426;7.714;2024-01-06T08:02:17;98868.28;;;5.00;100.00
71195;BME280;58908;51.426;7.714;2024-01-06T08:04:44;98867.84;;;4.73;100.00
71195;BME280;58908;51.426;7.714;2024-01-06T08:07:11;98874.03;;;4.71;100.00
71195;BME280;58908;51.426;7.714;2024-01-06T08:09:38;98869.31;;;4.79;100.00
71195;BME280;58908;51.426;7.714;2024-01-06T08:12:05;98872.41;;;4.68;100.00
71195;BME280;58908;51.426;7.714;2024-01-06T08:14:34;98879.25;;;4.71;100.00
71195;BME280;58908;51.426;7.714;2024-01-06T08:17:00;98887.09;;;4.71;100.00
71195;BME280;58908;51.426;7.714;2024-01-06T08:19:27;98882.53;;;4.57;100.00
71195;BME280;58908;51.426;7.714;2024-01-06T08:21:56;98891.56;;;4.51;100.00
71195;BME280;58908;51.426;7.714;2024-01-06T08:24:22;98896.28;;;4.61;100.00
71195;BME280;58908;51.426;7.714;2024-01-06T08:26:49;98902.38;;;4.62;100.00
71195;BME280;58908;51.426;7.714;2024-01-06T08:29:16;98901.44;;;4.63;100.00
71195;BME280;58908;51.426;7.714;2024-01-06T08:31:44;98910.84;;;4.48;100.00
71195;BME280;58908;51.426;7.714;2024-01-06T08:34:12;98911.09;;;4.42;100.00
71195;BME280;58908;51.426;7.714;2024-01-06T08:36:39;98922.19;;;4.47;100.00
71195;BME280;58908;51.426;7.714;2024-01-06T08:39:08;98933.25;;;4.34;100.00
71195;BME280;58908;51.426;7.714;2024-01-06T08:41:34;98932.34;;;4.35;100.00
71195;BME280;58908;51.426;7.714;2024-01-06T08:44:01;98940.13;;;4.36;100.00
71195;BME280;58908;51.426;7.714;2024-01-06T08:46:27;98933.69;;;4.43;100.00
71195;BME280;58908;51.426;7.714;2024-01-06T08:48:53;98946.53;;;4.48;100.00
71195;BME280;58908;51.426;7.714;2024-01-06T08:51:19;98947.09;;;4.36;100.00
71195;BME280;58908;51.426;7.714;2024-01-06T08:53:46;98953.44;;;4.30;100.00
71195;BME280;58908;51.426;7.714;2024-01-06T08:56:13;98951.03;;;4.44;100.00
71195;BME280;58908;51.426;7.714;2024-01-06T08:58:41;98960.91;;;4.38;100.00
71195;BME280;58908;51.426;7.714;2024-01-06T09:01:07;98966.94;;;4.40;100.00
71195;BME280;58908;51.426;7.714;2024-01-06T09:03:33;98962.34;;;4.45;100.00
71195;BME280;58908;51.426;7.714;2024-01-06T09:05:59;98966.19;;;4.56;100.00
71195;BME280;58908;51.426;7.714;2024-01-06T09:08:26;98963.31;;;4.42;100.00
71195;BME280;58908;51.426;7.714;2024-01-06T09:10:53;98971.34;;;4.38;100.00
71195;BME280;58908;51.426;7.714;2024-01-06T09:13:23;98975.19;;;4.49;100.00
71195;BME280;58908;51.426;7.714;2024-01-06T09:15:50;98975.94;;;4.33;100.00
71195;BME280;58908;51.426;7.714;2024-01-06T09:18:17;98984.72;;;4.12;100.00
71195;BME280;58908;51.426;7.714;2024-01-06T09:20:44;98978.44;;;4.16;100.00
71195;BME280;58908;51.426;7.714;2024-01-06T09:23:12;98992.41;;;4.15;100.00
71195;BME280;58908;51.426;7.714;2024-01-06T09:25:39;98984.78;;;4.10;100.00
71195;BME280;58908;51.426;7.714;2024-01-06T09:28:05;98992.41;;;4.15;100.00
71195;BME280;58908;51.426;7.714;2024-01-06T09:30:33;98996.06;;;4.11;100.00
71195;BME280;58908;51.426;7.714;2024-01-06T09:33:03;99003.50;;;4.00;100.00
71195;BME280;58908;51.426;7.714;2024-01-06T09:35:30;99001.06;;;3.97;100.00
71195;BME280;58908;51.426;7.714;2024-01-06T09:37:57;99007.69;;;4.04;100.00
71195;BME280;58908;51.426;7.714;2024-01-06T09:40:24;99011.19;;;4.03;100.00
71195;BME280;58908;51.426;7.714;2024-01-06T09:42:50;99019.38;;;3.95;100.00
71195;BME280;58908;51.426;7.714;2024-01-06T09:45:18;99019.50;;;3.92;100.00
71195;BME280;58908;51.426;7.714;2024-01-06T09:47:48;99024.84;;;3.69;100.00
71195;BME280;58908;51.426;7.714;2024-01-06T09:50:15;99028.06;;;3.96;100.00
71195;BME280;58908;51.426;7.714;2024-01-06T09:52:45;99026.84;;;4.03;100.00
71195;BME280;58908;51.426;7.714;2024-01-06T09:55:17;99023.81;;;3.93;100.00
71195;BME280;58908;51.426;7.714;2024-01-06T09:57:46;99040.59;;;3.86;100.00
71195;BME280;58908;51.426;7.714;2024-01-06T10:00:13;99042.81;;;3.75;100.00
71195;BME280;58908;51.426;7.714;2024-01-06T10:02:39;99042.44;;;3.84;100.00
71195;BME280;58908;51.426;7.714;2024-01-06T10:05:09;99040.81;;;3.82;100.00
71195;BME280;58908;51.426;7.714;2024-01-06T10:07:37;99051.19;;;3.83;100.00
71195;BME280;58908;51.426;7.714;2024-01-06T10:10:03;99054.44;;;3.68;100.00
71195;BME280;58908;51.426;7.714;2024-01-06T10:12:30;99058.38;;;3.57;100.00
71195;BME280;58908;51.426;7.714;2024-01-06T10:14:56;99048.47;;;3.65;100.00
71195;BME280;58908;51.426;7.714;2024-01-06T10:17:23;99056.03;;;3.71;100.00
71195;BME280;58908;51.426;7.714;2024-01-06T10:19:50;99056.97;;;3.70;100.00
71195;BME280;58908;51.426;7.714;2024-01-06T10:22:19;99056.53;;;3.80;100.00
71195;BME280;58908;51.426;7.714;2024-01-06T10:24:46;99065.78;;;3.67;100.00
71195;BME280;58908;51.426;7.714;2024-01-06T10:27:13;99063.69;;;3.75;100.00
71195;BME280;58908;51.426;7.714;2024-01-06T10:29:41;99053.59;;;3.88;100.00
71195;BME280;58908;51.426;7.714;2024-01-06T10:32:07;99062.16;;;3.91;100.00
71195;BME280;58908;51.426;7.714;2024-01-06T10:34:34;99066.28;;;3.97;100.00
71195;BME280;58908;51.426;7.714;2024-01-06T10:37:02;99067.75;;;3.82;100.00
71195;BME280;58908;51.426;7.714;2024-01-06T10:39:29;99069.56;;;3.80;100.00
71195;BME280;58908;51.426;7.714;2024-01-06T10:41:56;99067.59;;;3.85;100.00
71195;BME280;58908;51.426;7.714;2024-01-06T10:44:23;99073.75;;;3.84;100.00
71195;BME280;58908;51.426;7.714;2024-01-06T10:46:50;99065.31;;;3.78;100.00
71195;BME280;58908;51.426;7.714;2024-01-06T10:49:17;99074.13;;;3.75;100.00
71195;BME280;58908;51.426;7.714;2024-01-06T10:51:46;99064.09;;;3.86;100.00
71195;BME280;58908;51.426;7.714;2024-01-06T10:54:14;99075.88;;;3.75;100.00
71195;BME280;58908;51.426;7.714;2024-01-06T10:56:43;99077.03;;;3.89;100.00
71195;BME280;58908;51.426;7.714;2024-01-06T10:59:09;99075.38;;;3.87;100.00
71195;BME280;58908;51.426;7.714;2024-01-06T11:01:38;99078.22;;;3.81;100.00
71195;BME280;58908;51.426;7.714;2024-01-06T11:04:05;99083.84;;;3.50;100.00
71195;BME280;58908;51.426;7.714;2024-01-06T11:06:32;99081.00;;;3.56;100.00
71195;BME280;58908;51.426;7.714;2024-01-06T11:09:04;99077.59;;;3.76;100.00
71195;BME280;58908;51.426;7.714;2024-01-06T11:11:33;99084.50;;;3.77;100.00
71195;BME280;58908;51.426;7.714;2024-01-06T11:14:21;99079.41;;;3.74;100.00
71195;BME280;58908;51.426;7.714;2024-01-06T11:16:49;99079.59;;;3.69;100.00
71195;BME280;58908;51.426;7.714;2024-01-06T11:24:43;99088.06;;;3.74;100.00
71195;BME280;58908;51.426;7.714;2024-01-06T11:27:13;99082.44;;;3.63;100.00
71195;BME280;58908;51.426;7.714;2024-01-06T11:29:44;99083.34;;;3.62;100.00
71195;BME280;58908;51.426;7.714;2024-01-06T11:32:17;99086.31;;;3.53;100.00
71195;BME280;58908;51.426;7.714;2024-01-06T11:34:47;99090.00;;;3.48;100.00
71195;BME280;58908;51.426;7.714;2024-01-06T11:37:14;99082.09;;;3.51;100.00
71195;BME280;58908;51.426;7.714;2024-01-06T11:39:42;99093.66;;;3.44;100.00
71195;BME280;58908;51.426;7.714;2024-01-06T11:42:09;99093.41;;;3.50;100.00
71195;BME280;58908;51.426;7.714;2024-01-06T11:44:36;99083.97;;;3.47;100.00
71195;BME280;58908;51.426;7.714;2024-01-06T11:47:05;99085.53;;;3.51;100.00
71195;BME280;58908;51.426;7.714;2024-01-06T11:49:32;99084.16;;;3.43;100.00
71195;BME280;58908;51.426;7.714;2024-01-06T11:51:59;99082.31;;;3.45;100.00
71195;BME280;58908;51.426;7.714;2024-01-06T11:54:25;99087.78;;;3.39;100.00
71195;BME280;58908;51.426;7.714;2024-01-06T11:56:52;99089.78;;;3.54;100.00
71195;BME280;58908;51.426;7.714;2024-01-06T11:59:21;99089.19;;;3.47;100.00
71195;BME280;58908;51.426;7.714;2024-01-06T12:01:47;99093.53;;;3.47;100.00
71195;BME280;58908;51.426;7.714;2024-01-06T12:04:15;99094.22;;;3.52;100.00
71195;BME280;58908;51.426;7.714;2024-01-06T12:06:41;99094.31;;;3.49;100.00
71195;BME280;58908;51.426;7.714;2024-01-06T12:09:08;99099.44;;;3.52;100.00
71195;BME280;58908;51.426;7.714;2024-01-06T12:11:35;99093.22;;;3.54;100.00
71195;BME280;58908;51.426;7.714;2024-01-06T12:14:02;99088.31;;;3.47;100.00
71195;BME280;58908;51.426;7.714;2024-01-06T12:16:28;99101.59;;;3.41;100.00
71195;BME280;58908;51.426;7.714;2024-01-06T12:18:57;99092.09;;;3.40;100.00
71195;BME280;58908;51.426;7.714;2024-01-06T12:21:27;99100.00;;;3.37;100.00
71195;BME280;58908;51.426;7.714;2024-01-06T12:23:54;99098.22;;;3.39;100.00
71195;BME280;58908;51.426;7.714;2024-01-06T12:26:20;99098.22;;;3.16;100.00
71195;BME280;58908;51.426;7.714;2024-01-06T12:28:48;99094.09;;;3.10;100.00
71195;BME280;58908;51.426;7.714;2024-01-06T12:31:15;99099.94;;;3.17;100.00
71195;BME280;58908;51.426;7.714;2024-01-06T12:33:41;99104.09;;;3.22;100.00
71195;BME280;58908;51.426;7.714;2024-01-06T12:36:08;99103.00;;;3.28;100.00
71195;BME280;58908;51.426;7.714;2024-01-06T12:38:37;99106.44;;;3.28;100.00
71195;BME280;58908;51.426;7.714;2024-01-06T12:41:04;99107.50;;;3.23;100.00
71195;BME280;58908;51.426;7.714;2024-01-06T12:43:30;99103.59;;;3.34;100.00
71195;BME280;58908;51.426;7.714;2024-01-06T12:45:56;99117.66;;;3.30;100.00
71195;BME280;58908;51.426;7.714;2024-01-06T12:48:23;99122.63;;;3.36;100.00
71195;BME280;58908;51.426;7.714;2024-01-06T12:50:49;99119.25;;;3.34;100.00
71195;BME280;58908;51.426;7.714;2024-01-06T12:53:15;99124.19;;;3.19;100.00
71195;BME280;58908;51.426;7.714;2024-01-06T12:55:43;99116.97;;;3.25;100.00
71195;BME280;58908;51.426;7.714;2024-01-06T12:58:10;99123.94;;;3.25;100.00
71195;BME280;58908;51.426;7.714;2024-01-06T13:00:36;99129.16;;;3.25;100.00
71195;BME280;58908;51.426;7.714;2024-01-06T13:03:03;99125.94;;;3.18;100.00